createdAt,value
2018-07-14T00:04:19.415Z,99.90
2018-07-14T00:06:48.113Z,99.90
2018-07-14T00:09:16.745Z,99.90
2018-07-14T00:11:45.363Z,99.90
2018-07-14T00:14:14.041Z,99.90
2018-07-14T00:16:42.716Z,99.90
2018-07-14T00:19:11.376Z,99.90
2018-07-14T00:21:40.044Z,99.90
2018-07-14T00:24:08.703Z,99.90
2018-07-14T00:26:37.449Z,99.90
2018-07-14T00:29:06.201Z,99.90
2018-07-14T00:31:34.836Z,99.90
2018-07-14T00:34:03.580Z,99.90
2018-07-14T00:36:32.297Z,99.90
2018-07-14T00:39:00.932Z,99.90
2018-07-14T00:41:29.704Z,99.90
2018-07-14T00:43:58.391Z,99.90
2018-07-14T00:51:23.634Z,99.90
2018-07-14T00:53:52.246Z,99.90
2018-07-14T00:56:20.898Z,99.90
2018-07-14T00:58:49.554Z,99.90
2018-07-14T01:01:18.251Z,99.90
2018-07-14T01:03:46.970Z,99.90
2018-07-14T01:06:15.623Z,99.90
2018-07-14T01:08:44.309Z,99.90
2018-07-14T01:11:12.926Z,99.90
2018-07-14T01:13:41.801Z,99.90
2018-07-14T01:16:10.491Z,99.90
2018-07-14T01:21:07.624Z,99.90
2018-07-14T01:23:36.255Z,99.90
2018-07-14T01:26:05.011Z,99.90
2018-07-14T01:31:01.951Z,99.90
2018-07-14T01:33:31.010Z,99.90
2018-07-14T01:35:59.773Z,99.90
2018-07-14T01:38:28.465Z,99.90
2018-07-14T01:40:57.130Z,99.90
2018-07-14T01:43:25.835Z,99.90
2018-07-14T01:45:54.566Z,99.90
2018-07-14T01:48:23.243Z,99.90
2018-07-14T01:50:51.939Z,99.90
2018-07-14T01:53:20.570Z,99.90
2018-07-14T01:55:49.278Z,99.90
2018-07-14T01:58:18.019Z,99.90
2018-07-14T02:00:46.669Z,99.90
2018-07-14T02:03:15.307Z,99.90
2018-07-14T02:05:44.084Z,99.90
2018-07-14T02:08:12.794Z,99.90
2018-07-14T02:10:41.470Z,99.90
2018-07-14T02:13:10.129Z,99.90
2018-07-14T02:15:38.809Z,99.90
2018-07-14T02:18:07.605Z,99.90
2018-07-14T02:20:36.355Z,99.90
2018-07-14T02:23:05.031Z,99.90
2018-07-14T02:25:33.682Z,99.90
2018-07-14T02:28:02.354Z,99.90
2018-07-14T02:30:30.950Z,99.90
2018-07-14T02:35:27.879Z,99.90
2018-07-14T02:37:56.506Z,99.90
2018-07-14T02:40:25.266Z,99.90
2018-07-14T02:42:53.987Z,99.90
2018-07-14T02:45:22.783Z,99.90
2018-07-14T02:47:51.588Z,99.90
2018-07-14T02:50:20.306Z,99.90
2018-07-14T02:52:48.965Z,99.90
2018-07-14T02:55:17.605Z,99.90
2018-07-14T02:57:46.262Z,99.90
2018-07-14T03:00:14.898Z,99.90
2018-07-14T03:02:43.573Z,99.90
2018-07-14T03:05:12.198Z,99.90
2018-07-14T03:07:40.810Z,99.90
2018-07-14T03:10:09.438Z,99.90
2018-07-14T03:12:38.070Z,99.90
2018-07-14T03:15:06.861Z,99.90
2018-07-14T03:17:35.485Z,99.90
2018-07-14T03:20:04.231Z,99.90
2018-07-14T03:22:32.917Z,99.90
2018-07-14T03:25:01.600Z,99.90
2018-07-14T03:27:30.270Z,99.90
2018-07-14T03:29:58.923Z,99.90
2018-07-14T03:32:27.608Z,99.90
2018-07-14T03:34:56.232Z,99.90
2018-07-14T03:37:35.495Z,99.90
2018-07-14T03:42:32.442Z,99.90
2018-07-14T03:45:01.118Z,99.90
2018-07-14T03:47:29.804Z,99.90
2018-07-14T03:49:58.472Z,99.90
2018-07-14T03:52:27.165Z,99.90
2018-07-14T03:54:55.777Z,99.90
2018-07-14T03:57:24.443Z,99.90
2018-07-14T03:59:52.981Z,99.90
2018-07-14T04:02:21.657Z,99.90
2018-07-14T04:04:50.315Z,99.90
2018-07-14T04:07:19.028Z,99.90
2018-07-14T04:09:47.750Z,99.90
2018-07-14T04:12:16.389Z,99.90
2018-07-14T04:14:45.085Z,99.90
2018-07-14T04:17:13.743Z,99.90
2018-07-14T04:19:42.350Z,99.90
2018-07-14T04:22:10.966Z,99.90
2018-07-14T04:24:39.665Z,99.90
2018-07-14T04:27:08.279Z,99.90
2018-07-14T04:32:33.726Z,99.90
2018-07-14T04:35:02.342Z,99.90
2018-07-14T04:37:32.446Z,99.90
2018-07-14T04:40:01.082Z,99.90
2018-07-14T04:42:29.864Z,99.90
2018-07-14T04:44:58.428Z,99.90
2018-07-14T04:47:50.751Z,99.90
2018-07-14T04:50:19.506Z,99.90
2018-07-14T04:52:48.163Z,99.90
2018-07-14T04:55:16.892Z,99.90
2018-07-14T04:57:45.563Z,99.90
2018-07-14T05:00:14.218Z,99.90
2018-07-14T05:02:42.782Z,99.90
2018-07-14T05:08:04.304Z,99.90
2018-07-14T05:10:32.931Z,99.90
2018-07-14T05:13:01.603Z,99.90
2018-07-14T05:15:36.274Z,99.90
2018-07-14T05:18:04.953Z,99.90
2018-07-14T05:20:47.371Z,99.90
2018-07-14T05:23:16.039Z,99.90
2018-07-14T05:25:44.791Z,99.90
2018-07-14T05:28:13.507Z,99.90
2018-07-14T05:31:06.041Z,99.90
2018-07-14T05:33:34.793Z,99.90
2018-07-14T05:36:03.436Z,99.90
2018-07-14T05:38:32.105Z,99.90
2018-07-14T05:41:00.757Z,99.90
2018-07-14T05:43:29.487Z,99.90
2018-07-14T05:45:58.250Z,99.90
2018-07-14T05:48:26.938Z,99.90
2018-07-14T05:50:55.666Z,99.90
2018-07-14T05:53:24.399Z,99.90
2018-07-14T05:56:05.204Z,99.90
2018-07-14T05:58:33.915Z,99.90
2018-07-14T06:01:02.555Z,99.90
2018-07-14T06:03:31.234Z,99.90
2018-07-14T06:05:59.856Z,99.90
2018-07-14T06:08:28.522Z,99.90
2018-07-14T06:10:57.198Z,99.90
2018-07-14T06:13:25.878Z,99.90
2018-07-14T06:15:54.555Z,99.90
2018-07-14T06:18:23.162Z,99.90
2018-07-14T06:20:51.838Z,99.90
2018-07-14T06:23:20.590Z,99.90
2018-07-14T06:25:49.272Z,99.90
2018-07-14T06:28:18.002Z,99.90
2018-07-14T06:30:46.694Z,99.90
2018-07-14T06:33:15.304Z,99.90
2018-07-14T06:35:43.931Z,99.90
2018-07-14T06:38:12.559Z,99.90
2018-07-14T06:40:41.169Z,99.90
2018-07-14T06:43:09.821Z,99.90
2018-07-14T06:45:38.548Z,99.90
2018-07-14T06:48:07.250Z,99.90
2018-07-14T06:50:48.144Z,99.90
2018-07-14T06:53:16.715Z,99.90
2018-07-14T06:55:45.316Z,99.90
2018-07-14T06:58:14.001Z,99.90
2018-07-14T07:00:42.705Z,99.90
2018-07-14T07:03:11.410Z,99.90
2018-07-14T07:05:39.936Z,99.90
2018-07-14T07:08:08.784Z,99.90
2018-07-14T07:10:37.504Z,99.90
2018-07-14T07:13:06.283Z,99.90
2018-07-14T07:15:34.913Z,99.90
2018-07-14T07:18:03.610Z,99.90
2018-07-14T07:20:32.326Z,99.90
2018-07-14T07:23:01.044Z,99.90
2018-07-14T07:25:29.687Z,99.90
2018-07-14T07:27:58.297Z,99.90
2018-07-14T07:30:26.882Z,99.90
2018-07-14T07:32:55.621Z,99.90
2018-07-14T07:37:52.932Z,99.90
2018-07-14T07:40:21.575Z,99.90
2018-07-14T07:42:50.266Z,99.90
2018-07-14T07:45:19.005Z,98.80
2018-07-14T07:47:47.729Z,93.50
2018-07-14T07:52:44.807Z,85.90
2018-07-14T07:55:13.413Z,79.80
2018-07-14T07:57:42.145Z,71.40
2018-07-14T08:00:10.870Z,70.70
2018-07-14T08:02:39.619Z,69.90
2018-07-14T08:05:08.293Z,66.90
2018-07-14T08:07:37.008Z,64.70
2018-07-14T08:10:05.811Z,66.80
2018-07-14T08:12:34.490Z,64.20
2018-07-14T08:15:03.280Z,60.80
2018-07-14T08:20:00.187Z,62.50
2018-07-14T08:22:28.802Z,59.50
2018-07-14T08:24:57.508Z,59.20
2018-07-14T08:32:22.676Z,58.70
2018-07-14T08:34:51.373Z,59.70
2018-07-14T08:37:20.106Z,58.00
2018-07-14T08:39:48.706Z,57.10
2018-07-14T08:42:17.392Z,56.10
2018-07-14T08:47:14.482Z,56.80
2018-07-14T08:49:43.106Z,55.30
2018-07-14T08:52:11.826Z,55.60
2018-07-14T08:54:40.501Z,55.20
2018-07-14T08:57:09.192Z,54.10
2018-07-14T08:59:37.810Z,53.80
2018-07-14T09:02:06.574Z,55.40
2018-07-14T09:04:35.257Z,54.60
2018-07-14T09:07:04.044Z,55.00
2018-07-14T09:09:32.733Z,55.30
2018-07-14T09:12:01.387Z,54.00
2018-07-14T09:14:30.020Z,53.60
2018-07-14T09:16:58.621Z,53.60
2018-07-14T09:19:27.247Z,53.20
2018-07-14T09:21:55.950Z,51.30
2018-07-14T09:24:24.672Z,49.80
2018-07-14T09:26:53.282Z,51.60
2018-07-14T09:29:21.974Z,51.90
2018-07-14T09:31:50.569Z,51.60
2018-07-14T09:34:19.272Z,52.60
2018-07-14T09:36:47.896Z,53.10
2018-07-14T09:39:16.775Z,53.70
2018-07-14T09:41:45.394Z,51.20
2018-07-14T09:44:13.970Z,50.00
2018-07-14T09:46:42.518Z,52.20
2018-07-14T09:49:11.145Z,48.80
2018-07-14T09:51:39.761Z,49.60
2018-07-14T09:54:08.417Z,49.30
2018-07-14T09:56:37.024Z,49.20
2018-07-14T09:59:05.700Z,47.80
2018-07-14T10:01:34.303Z,49.30
2018-07-14T10:04:03.046Z,48.30
2018-07-14T10:06:31.661Z,48.20
2018-07-14T10:09:00.284Z,47.90
2018-07-14T10:11:28.946Z,46.10
2018-07-14T10:13:57.566Z,47.30
2018-07-14T10:16:26.232Z,45.80
2018-07-14T10:21:52.584Z,46.20
2018-07-14T10:24:21.306Z,44.70
2018-07-14T10:26:49.942Z,46.10
2018-07-14T10:29:24.024Z,45.20
2018-07-14T10:31:59.966Z,43.90
2018-07-14T10:34:28.623Z,45.60
2018-07-14T10:36:57.280Z,43.50
2018-07-14T10:39:25.860Z,46.30
2018-07-14T10:41:54.467Z,44.20
2018-07-14T10:44:25.156Z,44.90
2018-07-14T10:46:54.534Z,43.60
2018-07-14T10:49:23.098Z,43.80
2018-07-14T10:51:51.751Z,42.60
2018-07-14T10:54:42.694Z,41.80
2018-07-14T10:57:11.430Z,42.00
2018-07-14T10:59:40.070Z,42.10
2018-07-14T11:02:08.654Z,41.40
2018-07-14T11:07:48.596Z,45.20
2018-07-14T11:10:19.356Z,48.50
2018-07-14T11:12:57.744Z,50.00
2018-07-14T11:15:36.742Z,49.60
2018-07-14T11:18:05.725Z,47.80
2018-07-14T11:20:34.775Z,49.50
2018-07-14T11:23:03.764Z,50.20
2018-07-14T11:25:32.464Z,51.90
2018-07-14T11:28:01.212Z,53.00
2018-07-14T11:30:29.859Z,55.50
2018-07-14T11:32:58.625Z,53.60
2018-07-14T11:35:27.226Z,54.30
2018-07-14T11:37:55.782Z,53.60
2018-07-14T11:40:24.482Z,54.80
2018-07-14T11:42:53.018Z,54.90
2018-07-14T11:45:21.746Z,56.10
2018-07-14T11:47:50.524Z,55.80
2018-07-14T11:50:19.138Z,56.60
2018-07-14T11:52:47.823Z,54.60
2018-07-14T11:55:16.398Z,54.90
2018-07-14T11:57:44.997Z,54.50
2018-07-14T12:00:13.665Z,53.80
2018-07-14T12:02:42.379Z,54.70
2018-07-14T12:05:11.024Z,55.00
2018-07-14T12:07:39.707Z,54.30
2018-07-14T12:10:08.410Z,53.80
2018-07-14T12:12:37.080Z,54.70
2018-07-14T12:15:05.748Z,55.10
2018-07-14T12:17:34.436Z,55.60
2018-07-14T12:20:03.127Z,54.40
2018-07-14T12:22:31.746Z,56.80
2018-07-14T12:25:00.396Z,55.20
2018-07-14T12:27:29.095Z,52.90
2018-07-14T12:29:57.719Z,54.80
2018-07-14T12:32:26.302Z,54.60
2018-07-14T12:34:54.871Z,50.80
2018-07-14T12:37:23.612Z,48.70
2018-07-14T12:39:52.263Z,46.90
2018-07-14T12:42:20.879Z,46.00
2018-07-14T12:44:49.580Z,47.70
2018-07-14T12:50:15.846Z,49.80
2018-07-14T12:52:44.462Z,50.30
2018-07-14T12:55:13.155Z,51.00
2018-07-14T12:57:41.738Z,48.90
2018-07-14T13:00:10.476Z,48.90
2018-07-14T13:02:39.316Z,46.90
2018-07-14T13:05:08.254Z,48.20
2018-07-14T13:07:36.957Z,47.60
2018-07-14T13:10:06.306Z,47.80
2018-07-14T13:12:34.959Z,50.00
2018-07-14T13:15:03.729Z,49.50
2018-07-14T13:17:32.303Z,48.00
2018-07-14T13:20:00.902Z,46.70
2018-07-14T13:22:29.513Z,45.70
2018-07-14T13:24:58.200Z,44.10
2018-07-14T13:27:26.783Z,48.10
2018-07-14T13:29:55.494Z,45.70
2018-07-14T13:32:24.113Z,45.00
2018-07-14T13:40:40.319Z,48.30
2018-07-14T13:43:08.977Z,47.00
2018-07-14T13:45:37.705Z,45.70
2018-07-14T13:54:16.367Z,51.50
2018-07-14T13:56:45.128Z,51.50
2018-07-14T13:59:13.953Z,52.60
2018-07-14T14:01:42.735Z,51.00
2018-07-14T14:04:11.382Z,51.30
2018-07-14T14:06:40.907Z,50.70
2018-07-14T14:12:09.427Z,48.60
2018-07-14T14:14:56.502Z,48.50
2018-07-14T14:17:25.159Z,49.60
2018-07-14T14:19:59.681Z,49.40
2018-07-14T14:25:25.156Z,50.00
2018-07-14T14:27:53.792Z,47.30
2018-07-14T14:30:22.446Z,47.60
2018-07-14T14:32:51.170Z,47.60
2018-07-14T14:35:20.283Z,47.50
2018-07-14T14:37:48.980Z,47.80
2018-07-14T14:40:17.659Z,48.00
2018-07-14T14:42:46.283Z,48.30
2018-07-14T14:45:14.964Z,49.60
2018-07-14T14:47:43.610Z,49.90
2018-07-14T14:50:12.226Z,50.10
2018-07-14T14:52:40.955Z,51.90
2018-07-14T14:55:09.578Z,52.00
2018-07-14T14:57:38.205Z,53.10
2018-07-14T15:00:06.915Z,52.60
2018-07-14T15:02:35.547Z,52.90
2018-07-14T15:05:04.206Z,51.70
2018-07-14T15:07:32.854Z,52.10
2018-07-14T15:10:01.590Z,52.80
2018-07-14T15:12:30.215Z,53.60
2018-07-14T15:14:58.872Z,53.50
2018-07-14T15:17:27.553Z,55.10
2018-07-14T15:19:56.240Z,56.00
2018-07-14T15:25:18.902Z,54.20
2018-07-14T15:27:47.659Z,52.70
2018-07-14T15:30:16.329Z,53.30
2018-07-14T15:32:45.128Z,54.20
2018-07-14T15:35:13.811Z,54.80
2018-07-14T15:37:42.488Z,55.90
2018-07-14T15:40:22.059Z,54.10
2018-07-14T15:42:50.786Z,54.00
2018-07-14T15:45:19.524Z,55.60
2018-07-14T15:50:16.341Z,55.80
2018-07-14T15:52:45.017Z,56.90
2018-07-14T15:55:13.761Z,56.30
2018-07-14T15:58:02.586Z,55.70
2018-07-14T16:00:44.084Z,55.20
2018-07-14T16:03:12.756Z,53.80
2018-07-14T16:05:41.365Z,53.40
2018-07-14T16:08:09.988Z,50.90
2018-07-14T16:10:38.598Z,50.40
2018-07-14T16:13:07.444Z,51.60
2018-07-14T16:15:36.141Z,53.20
2018-07-14T16:18:04.891Z,52.00
2018-07-14T16:20:33.535Z,53.30
2018-07-14T16:23:22.498Z,54.70
2018-07-14T16:25:51.159Z,55.20
2018-07-14T16:28:19.815Z,54.70
2018-07-14T16:30:48.535Z,55.70
2018-07-14T16:33:17.191Z,55.40
2018-07-14T16:35:45.979Z,55.30
2018-07-14T16:38:14.544Z,55.80
2018-07-14T16:40:43.192Z,56.00
2018-07-14T16:43:11.914Z,56.30
2018-07-14T16:45:40.615Z,57.00
2018-07-14T16:48:09.341Z,57.80
2018-07-14T16:50:38.050Z,59.30
2018-07-14T16:53:06.748Z,61.00
2018-07-14T16:55:35.478Z,61.90
2018-07-14T16:58:04.054Z,62.50
2018-07-14T17:00:37.888Z,62.70
2018-07-14T17:03:17.036Z,62.30
2018-07-14T17:05:45.771Z,60.10
2018-07-14T17:08:14.548Z,58.80
2018-07-14T17:10:43.327Z,61.10
2018-07-14T17:13:12.034Z,62.90
2018-07-14T17:15:40.699Z,63.30
2018-07-14T17:18:12.765Z,62.60
2018-07-14T17:20:41.403Z,63.80
2018-07-14T17:23:10.271Z,64.50
2018-07-14T17:25:38.947Z,65.20
2018-07-14T17:28:07.723Z,63.70
2018-07-14T17:30:36.430Z,63.50
2018-07-14T17:33:05.097Z,64.00
2018-07-14T17:35:33.817Z,63.80
2018-07-14T17:38:02.578Z,61.90
2018-07-14T17:40:31.231Z,62.80
2018-07-14T17:42:59.835Z,63.50
2018-07-14T17:45:28.423Z,64.00
2018-07-14T17:50:25.431Z,64.40
2018-07-14T17:52:54.121Z,64.20
2018-07-14T17:55:22.842Z,65.00
2018-07-14T18:00:52.714Z,67.00
2018-07-14T18:03:21.483Z,66.90
2018-07-14T18:05:50.113Z,67.50
2018-07-14T18:11:14.084Z,66.70
2018-07-14T18:13:42.772Z,67.60
2018-07-14T18:16:11.549Z,67.80
2018-07-14T18:18:40.294Z,68.60
2018-07-14T18:21:09.038Z,67.80
2018-07-14T18:23:48.355Z,68.20
2018-07-14T18:26:17.153Z,68.20
2018-07-14T18:28:46.690Z,69.00
2018-07-14T18:31:15.440Z,69.00
2018-07-14T18:33:57.033Z,69.60
2018-07-14T18:36:31.258Z,70.20
2018-07-14T18:39:00.071Z,70.90
2018-07-14T18:41:28.821Z,71.50
2018-07-14T18:43:57.532Z,72.50
2018-07-14T18:46:26.319Z,72.30
2018-07-14T18:48:55.039Z,73.00
2018-07-14T18:51:24.861Z,74.00
2018-07-14T18:53:53.814Z,74.50
2018-07-14T18:56:22.692Z,76.60
2018-07-14T18:58:52.492Z,77.30
2018-07-14T19:04:14.803Z,80.10
2018-07-14T19:06:43.481Z,81.40
2018-07-14T19:09:12.150Z,83.50
2018-07-14T19:11:40.772Z,83.80
2018-07-14T19:14:11.528Z,85.20
2018-07-14T19:16:40.380Z,86.70
2018-07-14T19:19:09.106Z,88.20
2018-07-14T19:21:37.806Z,89.40
2018-07-14T19:24:06.667Z,90.10
2018-07-14T19:26:35.484Z,90.60
2018-07-14T19:29:04.168Z,91.30
2018-07-14T19:31:33.300Z,91.90
2018-07-14T19:34:01.974Z,92.50
2018-07-14T19:36:30.570Z,93.30
2018-07-14T19:38:59.301Z,94.10
2018-07-14T19:41:27.946Z,95.10
2018-07-14T19:43:56.651Z,95.50
2018-07-14T19:48:53.635Z,96.20
2018-07-14T19:51:22.266Z,97.10
2018-07-14T19:53:50.980Z,99.90
2018-07-14T19:56:19.725Z,99.90
2018-07-14T19:58:48.803Z,99.90
2018-07-14T20:01:17.539Z,99.90
2018-07-14T20:03:46.306Z,99.90
2018-07-14T20:06:14.945Z,99.90
2018-07-14T20:08:43.705Z,99.90
2018-07-14T20:11:12.304Z,99.90
2018-07-14T20:13:40.990Z,99.90
2018-07-14T20:16:10.312Z,99.90
2018-07-14T20:18:39.552Z,99.90
2018-07-14T20:21:08.138Z,99.90
2018-07-14T20:23:36.771Z,99.90
2018-07-14T20:26:05.670Z,99.90
2018-07-14T20:28:34.390Z,99.90
2018-07-14T20:31:03.157Z,99.90
2018-07-14T20:33:31.855Z,99.90
2018-07-14T20:36:00.579Z,99.90
2018-07-14T20:38:29.246Z,99.90
2018-07-14T20:40:57.817Z,99.90
2018-07-14T20:43:26.399Z,99.90
2018-07-14T20:45:55.135Z,99.90
2018-07-14T20:50:52.043Z,99.90
2018-07-14T20:53:20.694Z,99.90
2018-07-14T20:55:49.366Z,99.90
2018-07-14T20:58:17.990Z,99.90
2018-07-14T21:00:46.741Z,99.90
2018-07-14T21:03:15.486Z,99.90
2018-07-14T21:05:44.134Z,99.90
2018-07-14T21:08:12.816Z,99.90
2018-07-14T21:10:41.541Z,99.90
2018-07-14T21:13:10.184Z,99.90
2018-07-14T21:15:39.034Z,99.90
2018-07-14T21:18:07.723Z,99.90
2018-07-14T21:20:36.489Z,99.90
2018-07-14T21:23:05.149Z,99.90
2018-07-14T21:25:33.779Z,99.90
2018-07-14T21:28:02.375Z,99.90
2018-07-14T21:30:31.021Z,99.90
2018-07-14T21:32:59.710Z,99.90
2018-07-14T21:35:28.372Z,99.90
2018-07-14T21:37:57.006Z,99.90
2018-07-14T21:40:25.655Z,99.90
2018-07-14T21:42:54.286Z,99.90
2018-07-14T21:47:51.366Z,99.90
2018-07-14T21:50:20.086Z,99.90
2018-07-14T21:52:48.815Z,99.90
2018-07-14T21:55:17.610Z,99.90
2018-07-14T21:57:46.419Z,99.90
2018-07-14T22:00:25.834Z,99.90
2018-07-14T22:02:54.522Z,99.90
2018-07-14T22:07:51.451Z,99.90
2018-07-14T22:10:20.510Z,99.90
2018-07-14T22:12:49.397Z,99.90
2018-07-14T22:15:18.103Z,99.90
2018-07-14T22:17:46.665Z,99.90
2018-07-14T22:20:15.514Z,99.90
2018-07-14T22:22:44.222Z,99.90
2018-07-14T22:27:41.078Z,99.90
2018-07-14T22:30:09.805Z,99.90
2018-07-14T22:32:38.663Z,99.90
2018-07-14T22:35:07.654Z,99.90
2018-07-14T22:37:36.353Z,99.90
2018-07-14T22:40:05.561Z,99.90
2018-07-14T22:42:34.951Z,99.90
2018-07-14T22:45:03.701Z,99.90
2018-07-14T22:47:32.342Z,99.90
2018-07-14T22:50:01.012Z,99.90
2018-07-14T22:52:29.658Z,99.90
2018-07-14T22:54:58.350Z,99.90
2018-07-14T22:57:27.118Z,99.90
2018-07-14T22:59:55.676Z,99.90
2018-07-14T23:02:24.356Z,99.90
2018-07-14T23:04:52.968Z,99.90
2018-07-14T23:07:21.542Z,99.90
2018-07-14T23:09:50.201Z,99.90
2018-07-14T23:12:18.892Z,99.90
2018-07-14T23:14:47.458Z,99.90
2018-07-14T23:17:16.138Z,99.90
2018-07-14T23:19:44.807Z,99.90
2018-07-14T23:22:13.406Z,99.90
2018-07-14T23:24:42.146Z,99.90
2018-07-14T23:27:10.755Z,99.90
2018-07-14T23:29:39.408Z,99.90
2018-07-14T23:32:08.074Z,99.90
2018-07-14T23:34:36.899Z,99.90
2018-07-14T23:37:05.574Z,99.90
2018-07-14T23:39:34.270Z,99.90
2018-07-14T23:42:02.941Z,99.90
2018-07-14T23:44:31.561Z,99.90
2018-07-14T23:47:00.118Z,99.90
2018-07-14T23:49:28.813Z,99.90
2018-07-14T23:51:57.448Z,99.90
2018-07-14T23:54:26.490Z,99.90
2018-07-14T23:56:55.318Z,99.90
2018-07-14T23:59:24.025Z,99.90
